sensor_id;sensor_type;location;lat;lon;timestamp;temperature;humidity
36212;DHT22;22247;48.586;13.492;2023-03-26T00:39:05;5.10;99.90
36212;DHT22;22247;48.586;13.492;2023-03-26T00:43:58;5.20;99.90
36212;DHT22;22247;48.586;13.492;2023-03-26T00:46:26;5.20;99.90
36212;DHT22;22247;48.586;13.492;2023-03-26T00:48:54;5.20;99.90
36212;DHT22;22247;48.586;13.492;2023-03-26T00:53:49;5.30;99.90
36212;DHT22;22247;48.586;13.492;2023-03-26T00:58:44;5.40;99.90
36212;DHT22;22247;48.586;13.492;2023-03-26T01:01:17;5.40;99.90
36212;DHT22;22247;48.586;13.492;2023-03-26T01:06:30;5.50;99.90
36212;DHT22;22247;48.586;13.492;2023-03-26T01:09:17;5.50;99.90
36212;DHT22;22247;48.586;13.492;2023-03-26T01:14:16;5.70;99.90
36212;DHT22;22247;48.586;13.492;2023-03-26T01:16:55;5.60;99.90
36212;DHT22;22247;48.586;13.492;2023-03-26T01:22:15;5.70;99.90
36212;DHT22;22247;48.586;13.492;2023-03-26T01:24:43;5.70;99.90
36212;DHT22;22247;48.586;13.492;2023-03-26T01:27:52;5.70;99.90
36212;DHT22;22247;48.586;13.492;2023-03-26T01:35:59;5.70;99.90
36212;DHT22;22247;48.586;13.492;2023-03-26T01:41:10;5.90;99.90
36212;DHT22;22247;48.586;13.492;2023-03-26T01:46:21;5.90;99.90
36212;DHT22;22247;48.586;13.492;2023-03-26T01:51:30;6.00;99.90
36212;DHT22;22247;48.586;13.492;2023-03-26T01:53:59;6.10;99.90
36212;DHT22;22247;48.586;13.492;2023-03-26T01:56:59;6.20;99.90
36212;DHT22;22247;48.586;13.492;2023-03-26T02:05:04;6.30;99.90
36212;DHT22;22247;48.586;13.492;2023-03-26T02:07:51;6.40;99.90
36212;DHT22;22247;48.586;13.492;2023-03-26T02:10:33;6.60;99.90
36212;DHT22;22247;48.586;13.492;2023-03-26T02:13:00;6.70;99.90
36212;DHT22;22247;48.586;13.492;2023-03-26T02:25:18;6.30;99.90
36212;DHT22;22247;48.586;13.492;2023-03-26T02:27:45;6.30;99.90
36212;DHT22;22247;48.586;13.492;2023-03-26T02:30:18;6.20;99.90
36212;DHT22;22247;48.586;13.492;2023-03-26T02:35:10;6.30;99.90
36212;DHT22;22247;48.586;13.492;2023-03-26T02:37:38;6.30;99.90
36212;DHT22;22247;48.586;13.492;2023-03-26T02:40:06;6.30;99.90
36212;DHT22;22247;48.586;13.492;2023-03-26T02:42:36;6.40;99.90
36212;DHT22;22247;48.586;13.492;2023-03-26T02:52:22;6.70;99.90
36212;DHT22;22247;48.586;13.492;2023-03-26T03:02:17;6.60;99.90
36212;DHT22;22247;48.586;13.492;2023-03-26T03:09:41;6.40;99.90
36212;DHT22;22247;48.586;13.492;2023-03-26T03:29:14;6.30;99.90
36212;DHT22;22247;48.586;13.492;2023-03-26T03:31:42;6.30;99.90
36212;DHT22;22247;48.586;13.492;2023-03-26T03:48:52;6.10;99.90
36212;DHT22;22247;48.586;13.492;2023-03-26T03:58:39;6.10;99.90
36212;DHT22;22247;48.586;13.492;2023-03-26T04:15:54;6.70;99.90
36212;DHT22;22247;48.586;13.492;2023-03-26T04:18:22;6.70;99.90
36212;DHT22;22247;48.586;13.492;2023-03-26T04:23:16;6.70;99.90
36212;DHT22;22247;48.586;13.492;2023-03-26T04:25:50;6.70;99.90
36212;DHT22;22247;48.586;13.492;2023-03-26T04:28:39;6.70;99.90
36212;DHT22;22247;48.586;13.492;2023-03-26T04:31:12;6.50;99.90
36212;DHT22;22247;48.586;13.492;2023-03-26T04:33:45;6.50;99.90
36212;DHT22;22247;48.586;13.492;2023-03-26T04:36:15;6.40;99.90
36212;DHT22;22247;48.586;13.492;2023-03-26T04:38:45;6.40;99.90
36212;DHT22;22247;48.586;13.492;2023-03-26T04:41:15;6.30;99.90
36212;DHT22;22247;48.586;13.492;2023-03-26T04:46:12;6.20;99.90
36212;DHT22;22247;48.586;13.492;2023-03-26T04:51:04;6.20;99.90
36212;DHT22;22247;48.586;13.492;2023-03-26T04:53:37;6.10;99.90
36212;DHT22;22247;48.586;13.492;2023-03-26T04:56:10;6.10;99.90
36212;DHT22;22247;48.586;13.492;2023-03-26T05:05:59;6.20;99.90
36212;DHT22;22247;48.586;13.492;2023-03-26T05:15:51;5.80;99.90
36212;DHT22;22247;48.586;13.492;2023-03-26T05:18:17;5.90;99.90
36212;DHT22;22247;48.586;13.492;2023-03-26T05:20:45;5.90;99.90
36212;DHT22;22247;48.586;13.492;2023-03-26T05:23:14;5.90;99.90
36212;DHT22;22247;48.586;13.492;2023-03-26T05:25:44;5.90;99.90
36212;DHT22;22247;48.586;13.492;2023-03-26T05:30:41;5.90;99.90
36212;DHT22;22247;48.586;13.492;2023-03-26T05:35:35;6.10;99.90
36212;DHT22;22247;48.586;13.492;2023-03-26T05:43:03;6.20;99.90
36212;DHT22;22247;48.586;13.492;2023-03-26T05:52:52;7.00;99.90
36212;DHT22;22247;48.586;13.492;2023-03-26T05:55:20;7.10;99.90
36212;DHT22;22247;48.586;13.492;2023-03-26T06:27:10;6.80;99.90
36212;DHT22;22247;48.586;13.492;2023-03-26T06:36:56;6.90;99.90
36212;DHT22;22247;48.586;13.492;2023-03-26T06:44:20;7.10;99.90
36212;DHT22;22247;48.586;13.492;2023-03-26T07:03:57;7.70;99.90
36212;DHT22;22247;48.586;13.492;2023-03-26T07:08:51;7.70;99.90
36212;DHT22;22247;48.586;13.492;2023-03-26T07:26:12;8.50;99.90
36212;DHT22;22247;48.586;13.492;2023-03-26T07:28:47;8.40;99.90
36212;DHT22;22247;48.586;13.492;2023-03-26T07:37:38;8.80;99.90
36212;DHT22;22247;48.586;13.492;2023-03-26T07:47:41;9.10;99.90
36212;DHT22;22247;48.586;13.492;2023-03-26T07:50:16;9.10;99.90
36212;DHT22;22247;48.586;13.492;2023-03-26T07:55:14;9.10;99.90
36212;DHT22;22247;48.586;13.492;2023-03-26T08:00:16;9.30;99.90
36212;DHT22;22247;48.586;13.492;2023-03-26T08:03:02;9.30;99.90
36212;DHT22;22247;48.586;13.492;2023-03-26T08:05:46;9.50;99.90
36212;DHT22;22247;48.586;13.492;2023-03-26T08:14:37;9.50;99.90
36212;DHT22;22247;48.586;13.492;2023-03-26T08:16:53;9.40;99.90
36212;DHT22;22247;48.586;13.492;2023-03-26T08:22:12;9.70;99.90
36212;DHT22;22247;48.586;13.492;2023-03-26T08:25:08;9.60;99.90
36212;DHT22;22247;48.586;13.492;2023-03-26T08:30:22;9.60;99.90
36212;DHT22;22247;48.586;13.492;2023-03-26T08:32:56;9.60;99.90
36212;DHT22;22247;48.586;13.492;2023-03-26T08:35:26;9.80;99.90
36212;DHT22;22247;48.586;13.492;2023-03-26T08:44:02;10.00;99.90
36212;DHT22;22247;48.586;13.492;2023-03-26T08:52:15;10.40;99.90
36212;DHT22;22247;48.586;13.492;2023-03-26T09:23:36;10.60;99.90
36212;DHT22;22247;48.586;13.492;2023-03-26T09:59:21;10.60;99.90
36212;DHT22;22247;48.586;13.492;2023-03-26T10:04:49;10.60;99.90
36212;DHT22;22247;48.586;13.492;2023-03-26T10:10:16;10.70;99.90
36212;DHT22;22247;48.586;13.492;2023-03-26T10:12:54;10.60;99.90
36212;DHT22;22247;48.586;13.492;2023-03-26T10:15:54;10.60;99.90
36212;DHT22;22247;48.586;13.492;2023-03-26T10:29:37;10.70;99.90
36212;DHT22;22247;48.586;13.492;2023-03-26T10:32:34;10.70;99.90
36212;DHT22;22247;48.586;13.492;2023-03-26T10:37:54;11.00;99.90
36212;DHT22;22247;48.586;13.492;2023-03-26T10:42:59;11.00;99.90
36212;DHT22;22247;48.586;13.492;2023-03-26T10:53:40;10.80;99.90
36212;DHT22;22247;48.586;13.492;2023-03-26T10:56:46;10.60;99.90
36212;DHT22;22247;48.586;13.492;2023-03-26T10:59:15;10.70;99.90
36212;DHT22;22247;48.586;13.492;2023-03-26T11:02:19;10.70;99.90
36212;DHT22;22247;48.586;13.492;2023-03-26T11:08:01;10.50;99.90
36212;DHT22;22247;48.586;13.492;2023-03-26T11:16:08;10.10;99.90
36212;DHT22;22247;48.586;13.492;2023-03-26T11:21:25;9.90;99.90
36212;DHT22;22247;48.586;13.492;2023-03-26T11:32:36;9.10;99.90
36212;DHT22;22247;48.586;13.492;2023-03-26T11:37:37;9.00;99.90
36212;DHT22;22247;48.586;13.492;2023-03-26T11:40:13;8.60;99.90
36212;DHT22;22247;48.586;13.492;2023-03-26T11:42:43;8.70;99.90
36212;DHT22;22247;48.586;13.492;2023-03-26T11:45:24;8.70;99.90
36212;DHT22;22247;48.586;13.492;2023-03-26T11:47:58;8.70;99.90
36212;DHT22;22247;48.586;13.492;2023-03-26T11:50:30;8.70;99.90
36212;DHT22;22247;48.586;13.492;2023-03-26T11:53:11;8.70;99.90
36212;DHT22;22247;48.586;13.492;2023-03-26T11:58:37;8.80;99.90
36212;DHT22;22247;48.586;13.492;2023-03-26T12:01:23;8.80;99.90
36212;DHT22;22247;48.586;13.492;2023-03-26T12:03:56;9.00;99.90
36212;DHT22;22247;48.586;13.492;2023-03-26T12:06:25;9.00;99.90
36212;DHT22;22247;48.586;13.492;2023-03-26T12:11:25;8.90;99.90
36212;DHT22;22247;48.586;13.492;2023-03-26T12:14:00;8.80;99.90
36212;DHT22;22247;48.586;13.492;2023-03-26T12:19:18;8.70;99.90
36212;DHT22;22247;48.586;13.492;2023-03-26T12:21:47;8.70;99.90
36212;DHT22;22247;48.586;13.492;2023-03-26T12:24:33;8.50;99.90
36212;DHT22;22247;48.586;13.492;2023-03-26T12:27:24;8.40;99.90
36212;DHT22;22247;48.586;13.492;2023-03-26T12:32:40;8.60;99.90
36212;DHT22;22247;48.586;13.492;2023-03-26T12:35:21;8.60;99.90
36212;DHT22;22247;48.586;13.492;2023-03-26T12:37:51;8.60;99.90
36212;DHT22;22247;48.586;13.492;2023-03-26T12:40:34;8.50;99.90
36212;DHT22;22247;48.586;13.492;2023-03-26T12:43:04;8.60;99.90
36212;DHT22;22247;48.586;13.492;2023-03-26T12:45:41;8.50;99.90
36212;DHT22;22247;48.586;13.492;2023-03-26T12:48:11;8.60;99.90
36212;DHT22;22247;48.586;13.492;2023-03-26T12:56:00;8.60;99.90
36212;DHT22;22247;48.586;13.492;2023-03-26T13:12:31;8.60;99.90
36212;DHT22;22247;48.586;13.492;2023-03-26T13:15:19;8.70;99.90
36212;DHT22;22247;48.586;13.492;2023-03-26T13:22:57;8.80;99.90
36212;DHT22;22247;48.586;13.492;2023-03-26T13:30:47;8.70;99.90
36212;DHT22;22247;48.586;13.492;2023-03-26T13:36:23;8.80;99.90
36212;DHT22;22247;48.586;13.492;2023-03-26T13:44:53;9.20;99.90
36212;DHT22;22247;48.586;13.492;2023-03-26T13:47:29;9.30;99.90
36212;DHT22;22247;48.586;13.492;2023-03-26T13:50:06;9.30;99.90
36212;DHT22;22247;48.586;13.492;2023-03-26T14:00:57;9.60;99.90
36212;DHT22;22247;48.586;13.492;2023-03-26T14:03:54;9.70;99.90
36212;DHT22;22247;48.586;13.492;2023-03-26T14:09:14;9.80;99.90
36212;DHT22;22247;48.586;13.492;2023-03-26T14:15:00;9.80;99.90
36212;DHT22;22247;48.586;13.492;2023-03-26T14:38:33;10.30;99.90
36212;DHT22;22247;48.586;13.492;2023-03-26T15:00:49;9.50;99.90
36212;DHT22;22247;48.586;13.492;2023-03-26T15:41:57;9.80;99.90
36212;DHT22;22247;48.586;13.492;2023-03-26T15:50:34;9.80;99.90
36212;DHT22;22247;48.586;13.492;2023-03-26T15:56:23;9.70;99.90
36212;DHT22;22247;48.586;13.492;2023-03-26T16:01:57;9.70;99.90
36212;DHT22;22247;48.586;13.492;2023-03-26T16:04:54;9.70;99.90
36212;DHT22;22247;48.586;13.492;2023-03-26T16:10:26;9.70;99.90
36212;DHT22;22247;48.586;13.492;2023-03-26T16:18:24;9.60;99.90
36212;DHT22;22247;48.586;13.492;2023-03-26T16:26:18;9.60;99.90
36212;DHT22;22247;48.586;13.492;2023-03-26T16:41:31;9.60;99.90
36212;DHT22;22247;48.586;13.492;2023-03-26T16:46:36;9.30;99.90
36212;DHT22;22247;48.586;13.492;2023-03-26T16:49:35;9.20;99.90
36212;DHT22;22247;48.586;13.492;2023-03-26T17:00:53;9.00;99.90
36212;DHT22;22247;48.586;13.492;2023-03-26T17:03:42;8.90;99.90
36212;DHT22;22247;48.586;13.492;2023-03-26T17:06:35;8.90;99.90
36212;DHT22;22247;48.586;13.492;2023-03-26T17:26:21;8.80;99.90
36212;DHT22;22247;48.586;13.492;2023-03-26T17:29:18;8.70;99.90
36212;DHT22;22247;48.586;13.492;2023-03-26T17:31:56;8.80;99.90
36212;DHT22;22247;48.586;13.492;2023-03-26T17:42:30;8.40;99.90
36212;DHT22;22247;48.586;13.492;2023-03-26T17:45:01;8.30;99.90
36212;DHT22;22247;48.586;13.492;2023-03-26T17:47:51;8.20;99.90
36212;DHT22;22247;48.586;13.492;2023-03-26T17:50:26;8.20;99.90
36212;DHT22;22247;48.586;13.492;2023-03-26T17:55:27;8.20;99.90
36212;DHT22;22247;48.586;13.492;2023-03-26T18:03:31;7.90;99.90
36212;DHT22;22247;48.586;13.492;2023-03-26T18:06:12;7.60;99.90
36212;DHT22;22247;48.586;13.492;2023-03-26T18:19:07;7.10;99.90
36212;DHT22;22247;48.586;13.492;2023-03-26T18:21:45;7.10;99.90
36212;DHT22;22247;48.586;13.492;2023-03-26T18:24:21;7.00;99.90
36212;DHT22;22247;48.586;13.492;2023-03-26T18:27:12;6.80;99.90
36212;DHT22;22247;48.586;13.492;2023-03-26T18:34:57;6.70;99.90
36212;DHT22;22247;48.586;13.492;2023-03-26T18:37:26;6.70;99.90
36212;DHT22;22247;48.586;13.492;2023-03-26T18:40:15;6.60;99.90
36212;DHT22;22247;48.586;13.492;2023-03-26T18:42:48;6.70;99.90
36212;DHT22;22247;48.586;13.492;2023-03-26T18:45:32;6.60;99.90
36212;DHT22;22247;48.586;13.492;2023-03-26T18:50:38;6.60;99.90
36212;DHT22;22247;48.586;13.492;2023-03-26T18:53:13;6.70;99.90
36212;DHT22;22247;48.586;13.492;2023-03-26T18:58:29;6.40;99.90
36212;DHT22;22247;48.586;13.492;2023-03-26T19:00:58;6.40;99.90
36212;DHT22;22247;48.586;13.492;2023-03-26T19:03:30;7.30;99.90
36212;DHT22;22247;48.586;13.492;2023-03-26T19:06:00;6.40;99.90
36212;DHT22;22247;48.586;13.492;2023-03-26T19:08:31;6.30;99.90
36212;DHT22;22247;48.586;13.492;2023-03-26T19:10:58;6.30;99.90
36212;DHT22;22247;48.586;13.492;2023-03-26T19:13:30;6.20;99.90
36212;DHT22;22247;48.586;13.492;2023-03-26T19:16:02;6.20;99.90
36212;DHT22;22247;48.586;13.492;2023-03-26T19:21:00;6.10;99.90
36212;DHT22;22247;48.586;13.492;2023-03-26T19:23:39;6.10;99.90
36212;DHT22;22247;48.586;13.492;2023-03-26T19:26:08;6.00;99.90
36212;DHT22;22247;48.586;13.492;2023-03-26T19:28:41;6.10;99.90
36212;DHT22;22247;48.586;13.492;2023-03-26T19:33:45;6.10;99.90
36212;DHT22;22247;48.586;13.492;2023-03-26T19:36:24;6.00;99.90
36212;DHT22;22247;48.586;13.492;2023-03-26T19:38:52;6.20;99.90
36212;DHT22;22247;48.586;13.492;2023-03-26T19:43:50;6.20;99.90
36212;DHT22;22247;48.586;13.492;2023-03-26T19:46:17;6.20;99.90
36212;DHT22;22247;48.586;13.492;2023-03-26T19:48:49;6.20;99.90
36212;DHT22;22247;48.586;13.492;2023-03-26T19:51:23;6.10;99.90
36212;DHT22;22247;48.586;13.492;2023-03-26T19:53:54;6.10;99.90
36212;DHT22;22247;48.586;13.492;2023-03-26T19:56:25;6.20;99.90
36212;DHT22;22247;48.586;13.492;2023-03-26T20:01:22;6.20;99.90
36212;DHT22;22247;48.586;13.492;2023-03-26T20:03:53;6.20;99.90
36212;DHT22;22247;48.586;13.492;2023-03-26T20:06:21;6.20;99.90
36212;DHT22;22247;48.586;13.492;2023-03-26T20:11:22;6.00;99.90
36212;DHT22;22247;48.586;13.492;2023-03-26T20:13:48;6.10;99.90
36212;DHT22;22247;48.586;13.492;2023-03-26T20:18:48;6.70;99.90
36212;DHT22;22247;48.586;13.492;2023-03-26T20:21:23;6.00;99.90
36212;DHT22;22247;48.586;13.492;2023-03-26T20:26:19;6.10;99.90
36212;DHT22;22247;48.586;13.492;2023-03-26T20:31:15;6.10;99.90
36212;DHT22;22247;48.586;13.492;2023-03-26T20:36:12;6.10;99.90
36212;DHT22;22247;48.586;13.492;2023-03-26T20:38:42;6.10;99.90
36212;DHT22;22247;48.586;13.492;2023-03-26T20:41:17;6.00;99.90
36212;DHT22;22247;48.586;13.492;2023-03-26T20:46:19;6.00;99.90
36212;DHT22;22247;48.586;13.492;2023-03-26T20:53:45;6.00;99.90
36212;DHT22;22247;48.586;13.492;2023-03-26T20:56:13;6.20;99.90
36212;DHT22;22247;48.586;13.492;2023-03-26T21:01:08;6.20;99.90
36212;DHT22;22247;48.586;13.492;2023-03-26T21:06:02;6.20;99.90
36212;DHT22;22247;48.586;13.492;2023-03-26T21:11:10;6.20;99.90
36212;DHT22;22247;48.586;13.492;2023-03-26T21:13:51;6.00;99.90
36212;DHT22;22247;48.586;13.492;2023-03-26T21:18:48;6.10;99.90
36212;DHT22;22247;48.586;13.492;2023-03-26T21:23:47;6.10;99.90
36212;DHT22;22247;48.586;13.492;2023-03-26T21:29:23;6.10;99.90
36212;DHT22;22247;48.586;13.492;2023-03-26T21:39:09;6.60;99.90
36212;DHT22;22247;48.586;13.492;2023-03-26T21:41:48;7.10;99.90
36212;DHT22;22247;48.586;13.492;2023-03-26T21:46:43;7.30;99.90
36212;DHT22;22247;48.586;13.492;2023-03-26T21:49:11;7.30;99.90
36212;DHT22;22247;48.586;13.492;2023-03-26T21:54:11;7.20;99.90
36212;DHT22;22247;48.586;13.492;2023-03-26T21:59:54;7.10;99.90
36212;DHT22;22247;48.586;13.492;2023-03-26T22:05:01;6.90;99.90
36212;DHT22;22247;48.586;13.492;2023-03-26T22:17:34;6.30;99.90
36212;DHT22;22247;48.586;13.492;2023-03-26T22:22:31;6.10;99.90
36212;DHT22;22247;48.586;13.492;2023-03-26T22:27:25;6.00;99.90
36212;DHT22;22247;48.586;13.492;2023-03-26T23:09:01;5.90;99.90
36212;DHT22;22247;48.586;13.492;2023-03-26T23:13:59;6.00;99.90
36212;DHT22;22247;48.586;13.492;2023-03-26T23:21:20;6.10;99.90
36212;DHT22;22247;48.586;13.492;2023-03-26T23:23:47;6.00;99.90
36212;DHT22;22247;48.586;13.492;2023-03-26T23:31:09;6.00;99.90
36212;DHT22;22247;48.586;13.492;2023-03-26T23:33:39;6.00;99.90
36212;DHT22;22247;48.586;13.492;2023-03-26T23:38:38;6.10;99.90
36212;DHT22;22247;48.586;13.492;2023-03-26T23:48:24;6.00;99.90
36212;DHT22;22247;48.586;13.492;2023-03-26T23:50:51;6.10;99.90
36212;DHT22;22247;48.586;13.492;2023-03-26T23:53:24;6.00;99.90
36212;DHT22;22247;48.586;13.492;2023-03-26T23:55:51;6.00;99.90
